Fort Loudoun Observed Data For Previous 48 Hours

Caption
Day and Hour Reservoir Elevation (behind dam)* Tailwater Elevation (below dam)* Average Hourly Discharge*
3/18/2019 2 AM EDT 809.20 746.52 67,779
3/18/2019 3 AM EDT 809.19 746.51 67,823
3/18/2019 4 AM EDT 809.19 746.54 67,909
3/18/2019 5 AM EDT 809.19 746.51 68,031
3/18/2019 6 AM EDT 809.18 746.52 67,923
3/18/2019 7 AM EDT 809.18 746.52 67,893
3/18/2019 8 AM EDT 809.17 746.51 67,883
3/18/2019 9 AM EDT 809.17 746.55 67,769
3/18/2019 10 AM EDT 809.15 746.53 67,850
3/18/2019 11 AM EDT 809.15 746.53 67,854
3/18/2019 12 PM EDT 809.14 746.52 67,863
3/18/2019 1 PM EDT 809.14 746.50 67,914
3/18/2019 2 PM EDT 809.15 746.52 67,801
3/18/2019 3 PM EDT 809.15 746.50 67,783
3/18/2019 4 PM EDT 809.13 746.54 67,855
3/18/2019 5 PM EDT 809.10 746.53 67,948
3/18/2019 6 PM EDT 809.05 746.50 67,854
3/18/2019 7 PM EDT 808.98 746.51 67,808
3/18/2019 8 PM EDT 808.91 746.61 67,765
3/18/2019 9 PM EDT 808.85 746.54 67,649
3/18/2019 10 PM EDT 808.82 746.52 67,598
3/18/2019 11 PM EDT 808.80 746.50 67,566
3/19/2019 12 AM EDT 808.80 746.51 67,511
3/19/2019 1 AM EDT 808.79 746.50 67,590
3/19/2019 2 AM EDT 808.78 746.50 67,628
3/19/2019 3 AM EDT 808.77 746.52 67,540
3/19/2019 4 AM EDT 808.75 746.49 67,529
3/19/2019 5 AM EDT 808.75 746.49 67,448
3/19/2019 6 AM EDT 808.73 746.49 67,455
3/19/2019 7 AM EDT 808.71 746.51 67,470
3/19/2019 8 AM EDT 808.71 746.50 67,488
3/19/2019 9 AM EDT 808.69 746.54 67,453
3/19/2019 10 AM EDT 808.67 746.51 67,522
3/19/2019 11 AM EDT 808.66 746.50 67,443
3/19/2019 12 PM EDT 808.63 746.53 67,632
3/19/2019 1 PM EDT 808.61 746.54 69,869
3/19/2019 2 PM EDT 808.63 745.68 61,525
3/19/2019 3 PM EDT 808.66 745.25 57,276
3/19/2019 4 PM EDT 808.68 745.09 57,341
3/19/2019 5 PM EDT 808.69 744.95 57,293
3/19/2019 6 PM EDT 808.71 744.89 57,163
3/19/2019 7 PM EDT 808.73 744.84 57,142
3/19/2019 8 PM EDT 808.75 744.80 57,167
3/19/2019 9 PM EDT 808.76 744.76 57,031
3/19/2019 10 PM EDT 808.77 744.74 56,982
3/19/2019 11 PM EDT 808.79 744.74 56,896
3/20/2019 12 AM EDT 808.79 744.72 56,887
3/20/2019 1 AM EDT 808.81 744.72 56,830
3/20/2019 2 AM EDT 808.82 744.69 56,893
3/20/2019 3 AM EDT 808.84 744.70 56,864
3/20/2019 4 AM EDT 808.86 744.71 56,822
3/20/2019 5 AM EDT 808.88 744.68 56,810
3/20/2019 6 AM EDT 808.89 744.66 56,724
3/20/2019 7 AM EDT 808.91 744.66 56,722
3/20/2019 8 AM EDT 808.92 744.66 56,699
3/20/2019 9 AM EDT 808.94 744.64 56,611

Elevations are in feet above sea level. Discharges are in cubic feet per second and are reported at the end of the hour.